Time;durP1;ratioP1;P1;durP2;ratioP2;P2;SDS_P1;SDS_P2;PMS_P1;PMS_P2;Temp;Humidity;BMP_temperature;BMP_pressure;BME280_temperature;BME280_humidity;BME280_pressure;Samples;Min_cycle;Max_cycle;Signal;HPM_P1;HPM_P2
2023/10/25 00:02:03;;;;;;;20.33;8.63;;;;;;;;;;5034593;28;20053;-62
2023/10/25 00:04:29;;;;;;;9.80;3.60;;;;;;;;;;4997416;28;20045;-61
2023/10/25 00:06:56;;;;;;;5.55;2.05;;;;;;;;;;5011069;28;20049;-62
2023/10/25 00:09:23;;;;;;;5.53;2.00;;;;;;;;;;5013113;28;20060;-62
2023/10/25 00:11:51;;;;;;;5.97;1.88;;;;;;;;;;5009937;28;20064;-62
2023/10/25 00:14:17;;;;;;;4.25;1.90;;;;;;;;;;4992414;28;20054;-62
2023/10/25 00:16:44;;;;;;;3.20;1.67;;;;;;;;;;4968208;28;20050;-61
2023/10/25 00:19:11;;;;;;;9.20;2.42;;;;;;;;;;4999508;28;20112;-60
2023/10/25 00:21:38;;;;;;;8.70;2.72;;;;;;;;;;4980409;28;20078;-61
2023/10/25 00:24:06;;;;;;;6.78;2.10;;;;;;;;;;5000414;28;20072;-60
2023/10/25 00:26:32;;;;;;;11.93;1.98;;;;;;;;;;4982388;28;20124;-61
2023/10/25 00:29:00;;;;;;;5.72;2.10;;;;;;;;;;4981938;28;20164;-60
2023/10/25 00:31:27;;;;;;;5.50;1.98;;;;;;;;;;4978717;28;20066;-60
2023/10/25 00:33:54;;;;;;;8.43;2.15;;;;;;;;;;4988875;28;20043;-60
2023/10/25 00:36:21;;;;;;;5.07;1.85;;;;;;;;;;4970186;28;20084;-62
2023/10/25 00:38:47;;;;;;;7.35;2.28;;;;;;;;;;5002543;28;20103;-62
2023/10/25 00:41:15;;;;;;;5.50;1.95;;;;;;;;;;5003131;28;20177;-61
2023/10/25 00:43:41;;;;;;;16.65;1.80;;;;;;;;;;5005685;28;20058;-62
2023/10/25 00:46:13;;;;;;;7.40;2.00;;;;;;;;;;4993200;28;20138;-62
2023/10/25 00:48:41;;;;;;;6.38;2.03;;;;;;;;;;5002385;28;20076;-62
2023/10/25 00:51:10;;;;;;;9.77;3.22;;;;;;;;;;5001310;28;20069;-62
2023/10/25 00:53:39;;;;;;;8.63;2.13;;;;;;;;;;5003512;28;20054;-61
2023/10/25 00:56:06;;;;;;;5.20;1.70;;;;;;;;;;4990357;28;20037;-61
2023/10/25 00:58:34;;;;;;;6.00;1.93;;;;;;;;;;4994578;28;20050;-61
2023/10/25 01:01:01;;;;;;;3.88;1.50;;;;;;;;;;4984804;28;20064;-62
2023/10/25 01:03:29;;;;;;;5.43;1.88;;;;;;;;;;5005003;28;20121;-60
2023/10/25 01:05:57;;;;;;;4.72;1.90;;;;;;;;;;5002215;28;20064;-62
2023/10/25 01:08:24;;;;;;;2.63;1.40;;;;;;;;;;5012634;28;20122;-59
2023/10/25 01:10:53;;;;;;;11.85;2.00;;;;;;;;;;5038732;28;20136;-59
2023/10/25 01:13:20;;;;;;;7.22;1.95;;;;;;;;;;5022168;28;20053;-62
2023/10/25 01:15:47;;;;;;;5.40;1.98;;;;;;;;;;5020985;28;20056;-60
2023/10/25 01:18:14;;;;;;;5.43;1.88;;;;;;;;;;5020643;28;20212;-59
2023/10/25 01:20:43;;;;;;;5.93;1.42;;;;;;;;;;5001272;28;20057;-60
2023/10/25 01:23:11;;;;;;;9.15;2.00;;;;;;;;;;5001772;28;20428;-60
2023/10/25 01:25:38;;;;;;;7.20;2.22;;;;;;;;;;5001075;28;20157;-59
2023/10/25 01:28:05;;;;;;;7.22;2.17;;;;;;;;;;5005836;28;20161;-60
2023/10/25 01:30:32;;;;;;;8.10;2.42;;;;;;;;;;5012958;28;20049;-60
2023/10/25 01:32:59;;;;;;;9.18;2.72;;;;;;;;;;5018777;28;20077;-62
2023/10/25 01:35:26;;;;;;;6.68;2.67;;;;;;;;;;5002954;28;20190;-60
2023/10/25 01:37:52;;;;;;;8.43;3.05;;;;;;;;;;4989596;28;20140;-63
2023/10/25 01:40:21;;;;;;;7.50;3.10;;;;;;;;;;4994421;28;20202;-62
2023/10/25 01:42:47;;;;;;;6.95;3.30;;;;;;;;;;4983070;28;20138;-62
2023/10/25 01:45:14;;;;;;;7.20;3.45;;;;;;;;;;4999088;28;20058;-61
2023/10/25 01:47:41;;;;;;;7.38;2.97;;;;;;;;;;4980777;28;20096;-62
2023/10/25 01:50:08;;;;;;;8.38;3.22;;;;;;;;;;5016978;28;20049;-62
2023/10/25 01:52:35;;;;;;;6.03;3.33;;;;;;;;;;4999692;28;20057;-59
2023/10/25 01:55:02;;;;;;;10.32;3.45;;;;;;;;;;5018021;28;20120;-60
2023/10/25 01:57:30;;;;;;;6.90;3.78;;;;;;;;;;5025623;28;20076;-60
2023/10/25 01:59:57;;;;;;;7.95;2.88;;;;;;;;;;5040316;28;20053;-60
2023/10/25 02:02:23;;;;;;;9.32;2.88;;;;;;;;;;4991675;28;20376;-61
2023/10/25 02:04:50;;;;;;;8.82;2.35;;;;;;;;;;5052148;28;20084;-60
2023/10/25 02:07:17;;;;;;;7.75;2.50;;;;;;;;;;5058331;28;20064;-61
2023/10/25 02:09:44;;;;;;;8.93;2.47;;;;;;;;;;5050271;28;20115;-60
2023/10/25 02:12:10;;;;;;;6.07;2.15;;;;;;;;;;5021181;28;20832;-60
2023/10/25 02:14:39;;;;;;;7.07;2.38;;;;;;;;;;5016616;28;20152;-63
2023/10/25 02:17:06;;;;;;;5.10;1.83;;;;;;;;;;5018694;28;20061;-60
2023/10/25 02:19:32;;;;;;;5.35;1.92;;;;;;;;;;5028782;28;20135;-60
2023/10/25 02:21:59;;;;;;;4.95;1.83;;;;;;;;;;5012611;28;20053;-60
2023/10/25 02:24:26;;;;;;;7.60;2.42;;;;;;;;;;5040650;28;20573;-60
2023/10/25 02:26:53;;;;;;;5.55;1.85;;;;;;;;;;5035840;28;20118;-60
2023/10/25 02:29:20;;;;;;;9.77;2.08;;;;;;;;;;5036169;28;20460;-60
2023/10/25 02:31:48;;;;;;;4.78;2.08;;;;;;;;;;4993262;28;20094;-61
2023/10/25 02:34:14;;;;;;;4.50;1.85;;;;;;;;;;5016628;28;20168;-60
2023/10/25 02:36:41;;;;;;;9.15;2.15;;;;;;;;;;5035573;28;20205;-60
2023/10/25 02:39:09;;;;;;;4.43;1.90;;;;;;;;;;5036852;28;20075;-60
2023/10/25 02:41:36;;;;;;;5.13;1.77;;;;;;;;;;5031587;28;20144;-60
2023/10/25 02:44:02;;;;;;;4.95;1.90;;;;;;;;;;5030858;28;20421;-60
2023/10/25 02:46:29;;;;;;;6.13;1.65;;;;;;;;;;5035568;28;20285;-59
2023/10/25 02:48:57;;;;;;;4.65;1.88;;;;;;;;;;5021811;28;20172;-60
2023/10/25 02:51:24;;;;;;;5.68;1.90;;;;;;;;;;5002762;28;20093;-59
2023/10/25 02:53:52;;;;;;;4.70;1.95;;;;;;;;;;5023064;28;20134;-60
2023/10/25 02:56:19;;;;;;;6.80;2.08;;;;;;;;;;5042648;28;20159;-59
2023/10/25 02:58:45;;;;;;;7.07;1.73;;;;;;;;;;5056014;28;20076;-62
2023/10/25 03:01:20;;;;;;;2.92;1.67;;;;;;;;;;5038926;28;20061;-60
2023/10/25 03:03:47;;;;;;;5.32;1.70;;;;;;;;;;5016598;28;20045;-60
2023/10/25 03:06:15;;;;;;;9.60;1.90;;;;;;;;;;5012953;28;20482;-60
2023/10/25 03:08:42;;;;;;;5.13;2.10;;;;;;;;;;5018732;28;20111;-60
2023/10/25 03:11:08;;;;;;;5.20;2.20;;;;;;;;;;5050588;28;20560;-60
2023/10/25 03:13:35;;;;;;;4.10;1.83;;;;;;;;;;5053314;28;20052;-60
2023/10/25 03:16:02;;;;;;;4.00;1.73;;;;;;;;;;5049183;28;20052;-60
2023/10/25 03:18:28;;;;;;;3.25;1.65;;;;;;;;;;5056328;28;20126;-60
2023/10/25 03:20:55;;;;;;;7.78;1.95;;;;;;;;;;5058584;28;20123;-60
2023/10/25 03:23:23;;;;;;;5.30;1.95;;;;;;;;;;5052732;28;20056;-61
2023/10/25 03:25:50;;;;;;;4.68;1.70;;;;;;;;;;5048618;28;20045;-60
2023/10/25 03:28:16;;;;;;;10.05;2.20;;;;;;;;;;5055247;28;20052;-60
2023/10/25 03:30:43;;;;;;;5.13;1.83;;;;;;;;;;5063755;28;20063;-59
2023/10/25 03:33:12;;;;;;;7.63;1.73;;;;;;;;;;5051959;28;20199;-60
2023/10/25 03:35:38;;;;;;;4.53;1.65;;;;;;;;;;5057062;28;20056;-60
2023/10/25 03:38:05;;;;;;;4.43;1.90;;;;;;;;;;5048097;28;20079;-59
2023/10/25 03:40:33;;;;;;;4.82;1.58;;;;;;;;;;5055842;28;20137;-61
2023/10/25 03:43:00;;;;;;;4.82;2.00;;;;;;;;;;5045336;28;20056;-61
2023/10/25 03:45:26;;;;;;;9.95;1.80;;;;;;;;;;5033634;28;20045;-60
2023/10/25 03:47:53;;;;;;;5.07;2.00;;;;;;;;;;5017036;28;20038;-60
2023/10/25 03:50:21;;;;;;;4.45;1.70;;;;;;;;;;5022681;28;20093;-59
2023/10/25 03:52:47;;;;;;;7.90;1.90;;;;;;;;;;4996400;28;20281;-62
2023/10/25 03:55:14;;;;;;;3.22;1.30;;;;;;;;;;5015517;28;20144;-62
2023/10/25 03:57:44;;;;;;;4.45;1.70;;;;;;;;;;5021667;28;20081;-60
2023/10/25 04:00:12;;;;;;;2.97;1.50;;;;;;;;;;5017677;28;20068;-60
2023/10/25 04:02:40;;;;;;;5.57;1.40;;;;;;;;;;5022735;28;20163;-60
2023/10/25 04:05:07;;;;;;;8.63;1.52;;;;;;;;;;5022192;28;20336;-59
2023/10/25 04:07:34;;;;;;;6.18;1.70;;;;;;;;;;5009124;28;20057;-60
2023/10/25 04:10:01;;;;;;;5.05;1.70;;;;;;;;;;5000780;28;20084;-59
2023/10/25 04:12:28;;;;;;;4.82;1.67;;;;;;;;;;5023283;28;20090;-59
2023/10/25 04:14:56;;;;;;;3.30;1.48;;;;;;;;;;5042244;28;20052;-62
2023/10/25 04:17:23;;;;;;;4.40;1.70;;;;;;;;;;5026650;28;20295;-60
2023/10/25 04:19:51;;;;;;;4.45;1.48;;;;;;;;;;5013520;28;20139;-60
2023/10/25 04:22:19;;;;;;;5.28;1.70;;;;;;;;;;5006758;28;20111;-60
2023/10/25 04:24:45;;;;;;;7.07;1.85;;;;;;;;;;5021440;28;20050;-59
2023/10/25 04:27:12;;;;;;;6.40;1.60;;;;;;;;;;5020774;28;20061;-60
2023/10/25 04:29:39;;;;;;;5.88;1.80;;;;;;;;;;5021758;28;20559;-60
2023/10/25 04:32:07;;;;;;;9.50;2.00;;;;;;;;;;5005270;28;20120;-60
2023/10/25 04:34:34;;;;;;;;;;;;;;;;;;5024280;28;20056;-60
2023/10/25 04:37:00;;;;;;;2.30;1.25;;;;;;;;;;5020094;28;19929;-60
2023/10/25 04:39:27;;;;;;;5.40;1.80;;;;;;;;;;5017897;28;20057;-60
2023/10/25 04:41:54;;;;;;;6.20;1.75;;;;;;;;;;5017660;28;20892;-63
2023/10/25 04:44:23;;;;;;;13.55;2.42;;;;;;;;;;5018278;28;20057;-59
2023/10/25 04:46:49;;;;;;;9.90;3.00;;;;;;;;;;5019588;28;20061;-59
2023/10/25 04:49:18;;;;;;;7.57;2.20;;;;;;;;;;5017522;28;20179;-58
2023/10/25 04:51:44;;;;;;;9.50;2.22;;;;;;;;;;5027438;28;20122;-62
2023/10/25 04:54:11;;;;;;;6.45;1.77;;;;;;;;;;5032259;28;20063;-62
2023/10/25 04:56:38;;;;;;;8.25;1.90;;;;;;;;;;5038443;28;20076;-60
2023/10/25 04:59:04;;;;;;;6.40;2.10;;;;;;;;;;5037381;28;20218;-59
2023/10/25 05:01:31;;;;;;;6.05;1.70;;;;;;;;;;5032306;28;20106;-60
2023/10/25 05:03:58;;;;;;;9.38;1.98;;;;;;;;;;5030571;28;20084;-60
2023/10/25 05:06:27;;;;;;;6.32;2.13;;;;;;;;;;5036905;28;20060;-60
2023/10/25 05:08:54;;;;;;;5.80;1.85;;;;;;;;;;5035892;28;20318;-59
2023/10/25 05:11:26;;;;;;;6.63;1.88;;;;;;;;;;5034814;28;20124;-60
2023/10/25 05:13:53;;;;;;;7.22;2.30;;;;;;;;;;5027891;28;20045;-60
2023/10/25 05:16:20;;;;;;;9.43;2.25;;;;;;;;;;5038020;28;20142;-62
2023/10/25 05:18:48;;;;;;;6.05;2.17;;;;;;;;;;5033347;28;20118;-61
2023/10/25 05:21:18;;;;;;;6.22;1.98;;;;;;;;;;5039031;28;20170;-62
2023/10/25 05:23:47;;;;;;;12.65;2.30;;;;;;;;;;5021668;28;20053;-60
2023/10/25 05:26:14;;;;;;;7.55;2.22;;;;;;;;;;5036408;28;20080;-60
2023/10/25 05:28:41;;;;;;;6.70;2.13;;;;;;;;;;5036517;28;20100;-60
2023/10/25 05:31:11;;;;;;;8.50;2.90;;;;;;;;;;5038813;28;20076;-60
2023/10/25 05:33:38;;;;;;;6.97;2.88;;;;;;;;;;5024582;28;20053;-60
2023/10/25 05:36:06;;;;;;;9.60;2.42;;;;;;;;;;5032273;28;20084;-62
2023/10/25 05:38:33;;;;;;;6.15;2.63;;;;;;;;;;5026526;28;20189;-59
2023/10/25 05:41:02;;;;;;;9.93;2.78;;;;;;;;;;5018680;28;20500;-60
2023/10/25 05:43:30;;;;;;;6.32;2.17;;;;;;;;;;5014767;28;20076;-59
2023/10/25 05:45:57;;;;;;;6.10;2.30;;;;;;;;;;5007293;28;20073;-61
2023/10/25 05:48:24;;;;;;;7.80;2.28;;;;;;;;;;4997801;28;20145;-59
2023/10/25 05:50:52;;;;;;;6.18;2.50;;;;;;;;;;4998668;28;20056;-59
2023/10/25 05:53:19;;;;;;;6.35;2.58;;;;;;;;;;5009924;28;20068;-60
2023/10/25 05:55:48;;;;;;;13.88;2.33;;;;;;;;;;5016280;28;20060;-60
2023/10/25 05:58:17;;;;;;;7.88;2.17;;;;;;;;;;5020370;28;20064;-62
2023/10/25 06:00:48;;;;;;;;;;;;;;;;;;5037272;28;20044;-61
2023/10/25 06:03:20;;;;;;;6.75;2.25;;;;;;;;;;5016815;28;19925;-59
2023/10/25 06:05:51;;;;;;;6.45;1.70;;;;;;;;;;5014044;28;20167;-60
2023/10/25 06:08:18;;;;;;;6.22;2.28;;;;;;;;;;5026388;28;20169;-60
2023/10/25 06:10:45;;;;;;;7.32;2.28;;;;;;;;;;5023094;28;20099;-59
2023/10/25 06:13:12;;;;;;;6.45;2.50;;;;;;;;;;5012203;28;20061;-60
2023/10/25 06:15:40;;;;;;;5.35;2.20;;;;;;;;;;5019759;28;20049;-60
2023/10/25 06:18:09;;;;;;;6.80;2.15;;;;;;;;;;5026546;28;20049;-61
2023/10/25 06:20:36;;;;;;;6.07;2.30;;;;;;;;;;5017216;28;20075;-62
2023/10/25 06:23:03;;;;;;;4.88;1.90;;;;;;;;;;5003807;28;20053;-59
2023/10/25 06:25:30;;;;;;;4.47;1.85;;;;;;;;;;5017098;28;20161;-60
2023/10/25 06:27:59;;;;;;;3.65;1.58;;;;;;;;;;5008230;28;20063;-60
2023/10/25 06:30:27;;;;;;;3.78;1.58;;;;;;;;;;5018071;28;20057;-60
2023/10/25 06:32:59;;;;;;;5.03;1.70;;;;;;;;;;4985091;28;20054;-60
2023/10/25 06:35:26;;;;;;;4.03;1.58;;;;;;;;;;5020863;28;20049;-61
2023/10/25 06:37:56;;;;;;;4.55;1.83;;;;;;;;;;5009063;28;20096;-61
2023/10/25 06:40:23;;;;;;;6.30;2.45;;;;;;;;;;5017955;28;20363;-60
2023/10/25 06:42:53;;;;;;;3.97;1.63;;;;;;;;;;4992545;28;20127;-60
2023/10/25 06:45:21;;;;;;;4.35;1.67;;;;;;;;;;5032391;28;20052;-60
2023/10/25 06:47:48;;;;;;;6.20;1.50;;;;;;;;;;5016191;28;20128;-61
2023/10/25 06:50:17;;;;;;;4.78;1.80;;;;;;;;;;5015732;28;20057;-60
2023/10/25 06:52:45;;;;;;;12.77;3.20;;;;;;;;;;5001787;28;20049;-61
2023/10/25 06:55:14;;;;;;;12.68;4.45;;;;;;;;;;5006547;28;20050;-60
2023/10/25 06:57:42;;;;;;;21.88;11.00;;;;;;;;;;5017587;28;20061;-61
2023/10/25 07:00:12;;;;;;;6.63;2.47;;;;;;;;;;5012273;28;20069;-60
2023/10/25 07:02:48;;;;;;;4.25;1.67;;;;;;;;;;5047578;28;20049;-61
2023/10/25 07:05:17;;;;;;;5.78;1.65;;;;;;;;;;5019898;28;20077;-60
2023/10/25 07:07:45;;;;;;;8.48;1.58;;;;;;;;;;5015335;28;20058;-61
2023/10/25 07:10:13;;;;;;;4.88;1.50;;;;;;;;;;5016646;28;20064;-60
2023/10/25 07:12:40;;;;;;;6.77;1.70;;;;;;;;;;5012643;28;20079;-59
2023/10/25 07:15:08;;;;;;;4.65;1.60;;;;;;;;;;5038620;28;20330;-60
2023/10/25 07:17:37;;;;;;;3.42;1.42;;;;;;;;;;5035962;28;20048;-59
2023/10/25 07:20:09;;;;;;;6.05;1.33;;;;;;;;;;5043526;28;20048;-62
2023/10/25 07:22:38;;;;;;;5.82;1.80;;;;;;;;;;5028280;28;20144;-60
2023/10/25 07:25:05;;;;;;;6.43;1.73;;;;;;;;;;5023498;28;20050;-60
2023/10/25 07:27:36;;;;;;;4.10;1.88;;;;;;;;;;5021836;28;20065;-60
2023/10/25 07:30:04;;;;;;;3.38;1.38;;;;;;;;;;5013770;28;20080;-60
2023/10/25 07:32:32;;;;;;;10.77;2.20;;;;;;;;;;5012459;28;20131;-60
2023/10/25 07:34:59;;;;;;;8.57;2.05;;;;;;;;;;5025146;28;20119;-60
2023/10/25 07:37:25;;;;;;;17.50;7.13;;;;;;;;;;5022145;28;20053;-60
2023/10/25 07:39:53;;;;;;;5.80;2.53;;;;;;;;;;5015155;28;20057;-59
2023/10/25 07:42:20;;;;;;;4.57;1.67;;;;;;;;;;5009168;28;20060;-60
2023/10/25 07:44:47;;;;;;;4.18;1.77;;;;;;;;;;5042820;28;20049;-59
2023/10/25 07:47:14;;;;;;;3.05;1.45;;;;;;;;;;5023218;28;20077;-60
2023/10/25 07:49:45;;;;;;;3.22;1.50;;;;;;;;;;5034277;28;20059;-61
2023/10/25 07:52:13;;;;;;;3.08;1.60;;;;;;;;;;4999868;28;20268;-60
2023/10/25 07:54:40;;;;;;;4.70;1.98;;;;;;;;;;5051746;28;20065;-60
2023/10/25 07:57:08;;;;;;;3.67;1.52;;;;;;;;;;5038558;28;20069;-61
2023/10/25 07:59:36;;;;;;;6.15;1.85;;;;;;;;;;5028586;28;20140;-60
2023/10/25 08:02:06;;;;;;;3.72;1.77;;;;;;;;;;5000326;28;20289;-59
2023/10/25 08:04:32;;;;;;;7.10;1.90;;;;;;;;;;5020284;28;20042;-60
2023/10/25 08:06:59;;;;;;;5.82;1.90;;;;;;;;;;5005011;28;20053;-61
2023/10/25 08:09:26;;;;;;;4.07;1.88;;;;;;;;;;5004823;28;20053;-61
2023/10/25 08:11:53;;;;;;;9.57;2.75;;;;;;;;;;5009061;28;20077;-61
2023/10/25 08:14:21;;;;;;;14.40;2.10;;;;;;;;;;4992570;28;20064;-60
2023/10/25 08:16:48;;;;;;;3.47;1.83;;;;;;;;;;5004579;28;20049;-60
2023/10/25 08:19:15;;;;;;;8.00;2.28;;;;;;;;;;5004015;28;20060;-61
2023/10/25 08:21:42;;;;;;;7.43;2.15;;;;;;;;;;4991166;28;20056;-60
2023/10/25 08:24:09;;;;;;;9.60;2.03;;;;;;;;;;4984075;28;20116;-60
2023/10/25 08:26:37;;;;;;;4.72;1.67;;;;;;;;;;5000793;28;20058;-60
2023/10/25 08:29:05;;;;;;;5.95;2.22;;;;;;;;;;5001136;28;20065;-60
2023/10/25 08:31:33;;;;;;;5.70;1.80;;;;;;;;;;4983816;28;20046;-60
2023/10/25 08:34:00;;;;;;;9.82;2.10;;;;;;;;;;4979192;28;20076;-62
2023/10/25 08:36:28;;;;;;;10.18;4.85;;;;;;;;;;5000731;28;20053;-60
2023/10/25 08:38:55;;;;;;;7.93;2.45;;;;;;;;;;5005862;28;20037;-60
2023/10/25 08:41:25;;;;;;;6.85;2.20;;;;;;;;;;5027964;28;20076;-59
2023/10/25 08:43:52;;;;;;;4.78;1.83;;;;;;;;;;4985889;28;20050;-60
2023/10/25 08:46:20;;;;;;;5.03;2.13;;;;;;;;;;5011152;28;20059;-60
2023/10/25 08:48:50;;;;;;;9.00;2.13;;;;;;;;;;5022990;28;20061;-60
2023/10/25 08:51:16;;;;;;;6.75;2.13;;;;;;;;;;5004283;28;20052;-60
2023/10/25 08:53:47;;;;;;;6.00;2.00;;;;;;;;;;5011193;28;20049;-61
2023/10/25 08:56:14;;;;;;;8.50;2.47;;;;;;;;;;5019839;28;21264;-61
2023/10/25 08:58:41;;;;;;;6.55;2.63;;;;;;;;;;5019925;28;20048;-61
2023/10/25 09:01:07;;;;;;;6.72;2.80;;;;;;;;;;5002284;28;20081;-61
2023/10/25 09:03:39;;;;;;;4.68;2.30;;;;;;;;;;4986126;28;20063;-61
2023/10/25 09:06:09;;;;;;;6.03;2.25;;;;;;;;;;5013885;28;20150;-61
2023/10/25 09:08:37;;;;;;;3.80;1.88;;;;;;;;;;5039187;28;20061;-61
2023/10/25 09:11:06;;;;;;;5.63;2.10;;;;;;;;;;5038940;28;20061;-60
2023/10/25 09:13:35;;;;;;;7.65;2.63;;;;;;;;;;5035723;28;20084;-63
2023/10/25 09:16:06;;;;;;;8.80;2.28;;;;;;;;;;5016380;28;20060;-61
2023/10/25 09:18:35;;;;;;;5.97;2.28;;;;;;;;;;5023270;28;20067;-61
2023/10/25 09:21:02;;;;;;;5.32;2.55;;;;;;;;;;5038803;28;20060;-60
2023/10/25 09:23:30;;;;;;;5.43;2.35;;;;;;;;;;5006823;28;20056;-62
2023/10/25 09:25:59;;;;;;;9.65;2.72;;;;;;;;;;4995241;28;20061;-63
2023/10/25 09:28:28;;;;;;;8.73;2.75;;;;;;;;;;5001233;28;20092;-63
2023/10/25 09:30:56;;;;;;;15.75;6.63;;;;;;;;;;5020750;28;20057;-62
2023/10/25 09:33:22;;;;;;;9.20;4.13;;;;;;;;;;5018731;28;20051;-60
2023/10/25 09:35:49;;;;;;;5.40;2.45;;;;;;;;;;5014699;28;20056;-61
2023/10/25 09:38:16;;;;;;;12.35;2.55;;;;;;;;;;5022264;28;20056;-60
2023/10/25 09:40:46;;;;;;;5.40;2.45;;;;;;;;;;5020505;28;20067;-60
2023/10/25 09:43:17;;;;;;;6.30;2.50;;;;;;;;;;5032376;28;20083;-61
2023/10/25 09:45:50;;;;;;;10.35;2.72;;;;;;;;;;5015172;28;20049;-60
2023/10/25 09:48:19;;;;;;;8.18;2.42;;;;;;;;;;4999533;28;20063;-60
2023/10/25 09:51:03;;;;;;;10.30;2.85;;;;;;;;;;5018982;28;20088;-60
2023/10/25 09:53:38;;;;;;;11.48;3.40;;;;;;;;;;4951826;28;20133;-61
2023/10/25 09:56:09;;;;;;;9.07;3.00;;;;;;;;;;5011074;28;20261;-61
2023/10/25 09:58:36;;;;;;;4.55;2.00;;;;;;;;;;5020547;28;20065;-62
2023/10/25 10:01:05;;;;;;;5.50;2.22;;;;;;;;;;5004051;28;20532;-61
2023/10/25 10:03:44;;;;;;;7.70;2.83;;;;;;;;;;4985265;28;20054;-63
2023/10/25 10:06:26;;;;;;;6.28;2.20;;;;;;;;;;4995756;28;20078;-60
2023/10/25 10:09:02;;;;;;;5.97;2.05;;;;;;;;;;4983301;28;20081;-61
2023/10/25 10:11:38;;;;;;;7.45;2.67;;;;;;;;;;4998904;28;20160;-61
2023/10/25 10:14:30;;;;;;;7.20;3.15;;;;;;;;;;4990693;28;20061;-61
2023/10/25 10:16:59;;;;;;;6.72;2.67;;;;;;;;;;4984610;28;20153;-61
2023/10/25 10:19:26;;;;;;;6.53;2.55;;;;;;;;;;5002357;28;20046;-61
2023/10/25 10:22:14;;;;;;;8.70;2.55;;;;;;;;;;4986715;28;20183;-60
2023/10/25 10:24:46;;;;;;;5.40;2.40;;;;;;;;;;5012665;28;20085;-61
2023/10/25 10:27:16;;;;;;;5.85;2.67;;;;;;;;;;5000783;28;20144;-61
2023/10/25 10:29:47;;;;;;;8.45;3.63;;;;;;;;;;4997049;28;20096;-61
2023/10/25 10:32:18;;;;;;;5.47;2.58;;;;;;;;;;5003978;28;20049;-60
2023/10/25 10:34:47;;;;;;;7.90;2.80;;;;;;;;;;5016561;28;20055;-60
2023/10/25 10:37:14;;;;;;;;;;;;;;;;;;5019298;28;20085;-62
2023/10/25 10:40:17;;;;;;;4.45;2.08;;;;;;;;;;5020540;28;19978;-61
2023/10/25 10:42:45;;;;;;;9.82;3.00;;;;;;;;;;4988635;28;20060;-61
2023/10/25 10:45:15;;;;;;;6.50;2.53;;;;;;;;;;4999084;28;20073;-62
2023/10/25 10:47:43;;;;;;;8.55;3.40;;;;;;;;;;5000896;28;20057;-62
2023/10/25 10:50:12;;;;;;;7.50;3.08;;;;;;;;;;4995335;28;20060;-61
2023/10/25 10:52:40;;;;;;;10.30;3.10;;;;;;;;;;4997146;28;20049;-61
2023/10/25 10:55:11;;;;;;;9.02;4.07;;;;;;;;;;4993201;28;20081;-61
2023/10/25 10:57:37;;;;;;;8.65;2.55;;;;;;;;;;4980792;28;20050;-62
2023/10/25 11:00:08;;;;;;;8.00;2.50;;;;;;;;;;4977456;28;20066;-62
2023/10/25 11:02:36;;;;;;;4.55;2.30;;;;;;;;;;4969364;28;20128;-62
2023/10/25 11:05:03;;;;;;;9.80;2.70;;;;;;;;;;4983441;28;20077;-61
2023/10/25 11:07:32;;;;;;;7.70;2.40;;;;;;;;;;4996667;28;20049;-61
2023/10/25 11:09:59;;;;;;;5.13;2.40;;;;;;;;;;4994723;28;20077;-62
2023/10/25 11:12:26;;;;;;;7.40;2.53;;;;;;;;;;4993324;28;20120;-62
2023/10/25 11:14:53;;;;;;;6.45;2.40;;;;;;;;;;4999846;28;20053;-62
2023/10/25 11:17:21;;;;;;;7.13;2.33;;;;;;;;;;4999884;28;20243;-62
2023/10/25 11:19:49;;;;;;;6.32;2.38;;;;;;;;;;5000696;28;20117;-63
2023/10/25 11:22:15;;;;;;;8.60;2.63;;;;;;;;;;5000283;28;20170;-62
2023/10/25 11:24:42;;;;;;;10.85;2.35;;;;;;;;;;5017543;28;20212;-63
2023/10/25 11:27:09;;;;;;;7.40;2.25;;;;;;;;;;4999970;28;20095;-62
2023/10/25 11:29:37;;;;;;;8.52;2.53;;;;;;;;;;5001123;28;20155;-62
2023/10/25 11:32:06;;;;;;;6.57;2.28;;;;;;;;;;4974993;28;20412;-60
2023/10/25 11:34:34;;;;;;;10.57;2.35;;;;;;;;;;4995705;28;20057;-60
2023/10/25 11:37:02;;;;;;;6.95;2.08;;;;;;;;;;5008117;28;20049;-60
2023/10/25 11:39:32;;;;;;;7.35;2.45;;;;;;;;;;5000202;28;20049;-61
2023/10/25 11:41:58;;;;;;;5.63;2.28;;;;;;;;;;4942837;28;20074;-61
2023/10/25 11:44:26;;;;;;;8.68;2.45;;;;;;;;;;5015600;28;20097;-60
2023/10/25 11:46:55;;;;;;;5.88;2.08;;;;;;;;;;4983677;28;20145;-60
2023/10/25 11:49:22;;;;;;;5.88;2.25;;;;;;;;;;4997713;28;20166;-61
2023/10/25 11:51:54;;;;;;;8.02;2.40;;;;;;;;;;4989139;28;20132;-62
2023/10/25 11:54:20;;;;;;;4.35;2.15;;;;;;;;;;4993048;28;20069;-60
2023/10/25 11:56:48;;;;;;;7.25;2.22;;;;;;;;;;4980660;28;20156;-60
2023/10/25 11:59:14;;;;;;;5.85;2.13;;;;;;;;;;4981460;28;20045;-61
2023/10/25 12:01:44;;;;;;;5.88;2.13;;;;;;;;;;4991315;28;20053;-60
2023/10/25 12:04:11;;;;;;;8.38;1.83;;;;;;;;;;5025985;28;20092;-60
2023/10/25 12:06:38;;;;;;;6.07;2.05;;;;;;;;;;5038914;28;20114;-60
2023/10/25 12:09:06;;;;;;;8.40;2.05;;;;;;;;;;5037902;28;20053;-59
2023/10/25 12:11:33;;;;;;;3.90;1.75;;;;;;;;;;5027630;28;20041;-61
2023/10/25 12:14:00;;;;;;;4.25;2.10;;;;;;;;;;5034030;28;20128;-60
2023/10/25 12:16:26;;;;;;;5.00;1.70;;;;;;;;;;5024504;28;20045;-60
2023/10/25 12:18:53;;;;;;;4.07;1.67;;;;;;;;;;5024123;28;20045;-60
2023/10/25 12:21:20;;;;;;;5.32;1.83;;;;;;;;;;5031271;28;20040;-60
2023/10/25 12:23:47;;;;;;;4.60;2.03;;;;;;;;;;5024716;28;20066;-60
2023/10/25 12:26:15;;;;;;;4.57;1.90;;;;;;;;;;5036361;28;20808;-60
2023/10/25 12:28:42;;;;;;;4.95;1.95;;;;;;;;;;5041607;28;20061;-60
2023/10/25 12:31:09;;;;;;;7.93;2.10;;;;;;;;;;5042749;28;20052;-61
2023/10/25 12:33:36;;;;;;;4.70;1.77;;;;;;;;;;5051236;28;20143;-60
2023/10/25 12:36:03;;;;;;;8.38;2.22;;;;;;;;;;5035054;28;20095;-61
2023/10/25 12:38:30;;;;;;;6.30;2.00;;;;;;;;;;5022196;28;20088;-61
2023/10/25 12:40:57;;;;;;;6.72;1.75;;;;;;;;;;5023001;28;20060;-60
2023/10/25 12:43:25;;;;;;;5.93;1.58;;;;;;;;;;5029865;28;20053;-59
2023/10/25 12:45:53;;;;;;;4.85;1.50;;;;;;;;;;5028962;28;20065;-63
2023/10/25 12:48:19;;;;;;;6.97;1.77;;;;;;;;;;5020597;28;20157;-58
2023/10/25 12:50:47;;;;;;;8.88;1.88;;;;;;;;;;5019765;28;20073;-63
2023/10/25 12:53:14;;;;;;;6.63;1.90;;;;;;;;;;4958881;28;20127;-61
2023/10/25 12:55:44;;;;;;;4.50;1.73;;;;;;;;;;5007602;28;20045;-61
2023/10/25 12:58:11;;;;;;;7.90;1.58;;;;;;;;;;5012595;28;20269;-61
2023/10/25 13:00:40;;;;;;;5.07;1.60;;;;;;;;;;5000112;28;20050;-60
2023/10/25 13:03:06;;;;;;;5.25;1.30;;;;;;;;;;5007300;28;20057;-60
2023/10/25 13:05:33;;;;;;;4.25;1.60;;;;;;;;;;5021931;28;20192;-60
2023/10/25 13:08:00;;;;;;;4.55;1.63;;;;;;;;;;5012509;28;20107;-61
2023/10/25 13:10:26;;;;;;;4.35;1.60;;;;;;;;;;5030612;28;20049;-60
2023/10/25 13:12:53;;;;;;;5.78;1.33;;;;;;;;;;5019916;28;20124;-60
2023/10/25 13:15:20;;;;;;;3.28;1.48;;;;;;;;;;5039289;28;20134;-60
2023/10/25 13:17:49;;;;;;;4.15;1.40;;;;;;;;;;5033684;28;20060;-60
2023/10/25 13:20:17;;;;;;;;;;;;;;;;;;5042321;28;20064;-59
2023/10/25 13:22:44;;;;;;;5.32;1.50;;;;;;;;;;5035417;28;19928;-62
2023/10/25 13:25:11;;;;;;;3.30;1.50;;;;;;;;;;5039537;28;20064;-60
2023/10/25 13:27:38;;;;;;;3.40;1.60;;;;;;;;;;5018385;28;20138;-60
2023/10/25 13:30:06;;;;;;;4.00;1.50;;;;;;;;;;5049677;28;20125;-60
2023/10/25 13:32:32;;;;;;;2.72;1.35;;;;;;;;;;5019481;28;20061;-59
2023/10/25 13:35:01;;;;;;;3.80;1.45;;;;;;;;;;5020533;28;20092;-60
2023/10/25 13:37:27;;;;;;;3.03;1.48;;;;;;;;;;5019036;28;20064;-60
2023/10/25 13:39:54;;;;;;;1.52;1.10;;;;;;;;;;5015056;28;20053;-61
2023/10/25 13:42:21;;;;;;;5.13;1.45;;;;;;;;;;5017443;28;20065;-60
2023/10/25 13:44:48;;;;;;;3.30;1.52;;;;;;;;;;5039193;28;20108;-60
2023/10/25 13:47:17;;;;;;;2.42;1.38;;;;;;;;;;5019478;28;20061;-59
2023/10/25 13:49:44;;;;;;;3.13;1.52;;;;;;;;;;5016817;28;20584;-62
2023/10/25 13:52:13;;;;;;;9.25;3.03;;;;;;;;;;5014944;28;20045;-60
2023/10/25 13:54:39;;;;;;;5.13;2.17;;;;;;;;;;5008854;28;20064;-60
2023/10/25 13:57:06;;;;;;;4.45;1.80;;;;;;;;;;5017557;28;20061;-60
2023/10/25 13:59:33;;;;;;;4.25;1.55;;;;;;;;;;5027935;28;20116;-60
2023/10/25 14:01:59;;;;;;;2.83;1.33;;;;;;;;;;5033454;28;20060;-61
2023/10/25 14:04:26;;;;;;;4.10;1.30;;;;;;;;;;5017965;28;20061;-60
2023/10/25 14:06:53;;;;;;;6.25;1.45;;;;;;;;;;5022911;28;20065;-60
2023/10/25 14:09:21;;;;;;;2.47;1.40;;;;;;;;;;5023072;28;20143;-60
2023/10/25 14:11:50;;;;;;;2.85;1.38;;;;;;;;;;5025361;28;20049;-60
2023/10/25 14:14:19;;;;;;;6.43;1.23;;;;;;;;;;5022040;28;20053;-60
2023/10/25 14:16:48;;;;;;;2.53;1.30;;;;;;;;;;5039796;28;20194;-60
2023/10/25 14:19:20;;;;;;;2.45;1.23;;;;;;;;;;5038908;28;20049;-60
2023/10/25 14:21:48;;;;;;;2.47;1.45;;;;;;;;;;5036441;28;20166;-61
2023/10/25 14:24:18;;;;;;;4.55;1.30;;;;;;;;;;5013354;28;20055;-60
2023/10/25 14:26:47;;;;;;;2.92;1.40;;;;;;;;;;5019873;28;20084;-60
2023/10/25 14:29:14;;;;;;;4.53;1.08;;;;;;;;;;5019980;28;20065;-60
2023/10/25 14:31:47;;;;;;;4.70;1.55;;;;;;;;;;5028910;28;20115;-60
2023/10/25 14:34:16;;;;;;;3.28;1.60;;;;;;;;;;5004283;28;20102;-61
2023/10/25 14:36:44;;;;;;;2.92;1.30;;;;;;;;;;5039320;28;20114;-61
2023/10/25 14:39:12;;;;;;;2.28;0.95;;;;;;;;;;5039823;28;20118;-60
2023/10/25 14:41:39;;;;;;;4.45;1.77;;;;;;;;;;5040033;28;20061;-60
2023/10/25 14:44:07;;;;;;;2.70;1.20;;;;;;;;;;5016729;28;20080;-60
2023/10/25 14:46:34;;;;;;;2.95;1.20;;;;;;;;;;5032195;28;20067;-59
2023/10/25 14:49:03;;;;;;;2.45;1.38;;;;;;;;;;5039929;28;20110;-59